Time;durP1;ratioP1;P1;durP2;ratioP2;P2;SDS_P1;SDS_P2;PMS_P1;PMS_P2;Temp;Humidity;BMP_temperature;BMP_pressure;BME280_temperature;BME280_humidity;BME280_pressure;Samples;Min_cycle;Max_cycle;Signal;HPM_P1;HPM_P2
2023/06/07 00:01:50;;;;;;;8.13;3.73;;;;;;;19.10;32.22;100981.70;123584;1102;104278;-78
2023/06/07 00:04:21;;;;;;;6.13;3.37;;;;;;;19.08;32.67;100979.93;123623;1102;104264;-78
2023/06/07 00:07:00;;;;;;;6.40;3.67;;;;;;;19.06;32.57;100977.25;123451;1102;104381;-77
2023/06/07 00:09:32;;;;;;;8.67;3.93;;;;;;;19.04;32.44;100974.58;123523;1102;104274;-78
2023/06/07 00:12:03;;;;;;;9.73;3.70;;;;;;;19.01;32.79;100965.66;123538;1102;104335;-79
2023/06/07 00:14:35;;;;;;;8.47;3.70;;;;;;;18.97;32.86;100963.88;123428;1101;104335;-77
2023/06/07 00:17:08;;;;;;;8.23;3.73;;;;;;;18.92;32.81;100961.18;123535;1102;104626;-77
2023/06/07 00:19:39;;;;;;;7.83;3.90;;;;;;;18.91;33.35;100966.48;123474;1102;104306;-78
2023/06/07 00:22:12;;;;;;;10.50;3.80;;;;;;;18.89;33.21;100963.81;123585;1102;104198;-78
2023/06/07 00:24:43;;;;;;;8.43;3.83;;;;;;;18.89;33.16;100966.47;123486;1102;104258;-79
2023/06/07 00:27:15;;;;;;;10.73;3.80;;;;;;;18.87;33.25;100962.91;123725;1102;104354;-78
2023/06/07 00:29:46;;;;;;;9.67;3.57;;;;;;;18.85;33.32;100961.98;123509;1102;104717;-78
2023/06/07 00:32:18;;;;;;;9.00;3.80;;;;;;;18.83;33.21;100959.28;123615;1102;104172;-79
2023/06/07 00:34:49;;;;;;;9.97;3.87;;;;;;;18.81;33.45;100960.17;123442;1102;104435;-79
2023/06/07 00:37:20;;;;;;;8.93;3.80;;;;;;;18.79;33.90;100954.83;123576;1102;104226;-78
2023/06/07 00:39:51;;;;;;;9.50;3.93;;;;;;;18.76;33.64;100956.55;123534;1102;104245;-78
2023/06/07 00:42:23;;;;;;;7.00;3.30;;;;;;;18.72;33.56;100960.08;123625;1102;104619;-78
2023/06/07 00:44:54;;;;;;;8.77;3.63;;;;;;;18.69;33.37;100960.93;123508;1102;104501;-79
2023/06/07 00:47:26;;;;;;;8.90;3.60;;;;;;;18.65;33.90;100961.77;123538;1102;104361;-78
2023/06/07 00:49:58;;;;;;;8.73;3.70;;;;;;;18.61;33.96;100959.97;123623;1102;104361;-77
2023/06/07 00:52:30;;;;;;;9.87;4.17;;;;;;;18.57;33.89;100955.48;123590;1102;104226;-78
2023/06/07 00:55:02;;;;;;;7.85;3.50;;;;;;;18.53;33.96;100956.32;123540;1102;104351;-78
2023/06/07 00:57:35;;;;;;;11.27;4.10;;;;;;;18.48;33.98;100957.19;123444;1102;104463;-77
2023/06/07 01:00:13;;;;;;;9.43;3.90;;;;;;;18.44;34.10;100954.48;123435;1102;104291;-77
2023/06/07 01:02:46;;;;;;;7.70;3.30;;;;;;;18.43;33.79;100952.69;123532;1100;104370;-78
2023/06/07 01:05:20;;;;;;;8.70;3.30;;;;;;;18.42;33.94;100946.49;123591;1102;104275;-78
2023/06/07 01:07:55;;;;;;;8.20;3.80;;;;;;;18.41;34.17;100950.02;123445;1101;104306;-78
2023/06/07 01:10:27;;;;;;;9.50;3.80;;;;;;;18.39;34.28;100943.80;123522;1100;104225;-78
2023/06/07 01:13:03;;;;;;;7.87;3.80;;;;;;;18.37;34.30;100941.98;123514;1102;104233;-78
2023/06/07 01:15:36;;;;;;;10.50;3.90;;;;;;;18.35;34.47;100943.75;123460;1102;104273;-79
2023/06/07 01:18:09;;;;;;;12.87;3.90;;;;;;;18.33;34.47;100947.27;123470;1102;104310;-78
2023/06/07 01:20:49;;;;;;;9.03;3.85;;;;;;;18.30;34.93;100941.92;123434;1102;104200;-78
2023/06/07 01:23:29;;;;;;;11.23;4.30;;;;;;;18.25;34.80;100938.34;123452;1102;104181;-78
2023/06/07 01:26:03;;;;;;;11.10;4.40;;;;;;;18.20;34.85;100941.80;123622;1102;104275;-79
2023/06/07 01:28:35;;;;;;;8.77;4.13;;;;;;;18.18;35.00;100938.25;123598;1100;104335;-79
2023/06/07 01:31:06;;;;;;;9.77;4.53;;;;;;;18.14;35.13;100937.33;123639;1102;104255;-78
2023/06/07 01:33:39;;;;;;;13.33;4.00;;;;;;;18.11;35.02;100935.52;123501;1102;104281;-78
2023/06/07 01:36:12;;;;;;;9.77;3.87;;;;;;;18.08;35.05;100935.48;123611;1102;104347;-79
2023/06/07 01:38:44;;;;;;;9.63;3.70;;;;;;;18.03;35.36;100930.98;123605;1102;104332;-80
2023/06/07 01:41:17;;;;;;;9.57;3.47;;;;;;;17.97;34.99;100937.12;123725;1102;104328;-79
2023/06/07 01:43:48;;;;;;;9.90;3.30;;;;;;;17.93;35.22;100937.95;123454;1102;104283;-78
2023/06/07 01:46:24;;;;;;;11.53;3.67;;;;;;;17.90;35.24;100932.59;123458;1102;104317;-79
2023/06/07 01:48:58;;;;;;;8.77;3.40;;;;;;;17.87;35.69;100949.37;123379;1102;104559;-77
2023/06/07 01:51:30;;;;;;;8.57;3.33;;;;;;;17.85;35.41;100948.44;123508;1102;104312;-78
2023/06/07 01:54:02;;;;;;;7.37;3.53;;;;;;;17.82;35.73;100943.09;123456;1102;104271;-77
2023/06/07 01:56:41;;;;;;;10.10;3.50;;;;;;;17.78;35.69;100951.90;123376;1102;104207;-77
2023/06/07 01:59:22;;;;;;;12.40;4.00;;;;;;;17.75;35.81;100950.08;123452;1102;104336;-78
2023/06/07 02:02:02;;;;;;;9.40;3.80;;;;;;;17.71;36.13;100947.37;123351;1101;104353;-78
2023/06/07 02:04:38;;;;;;;7.73;3.83;;;;;;;17.66;36.31;100949.95;123453;1102;104377;-81
2023/06/07 02:07:14;;;;;;;10.50;3.67;;;;;;;17.63;36.12;100946.38;123349;1102;104201;-78
2023/06/07 02:09:51;;;;;;;9.60;4.00;;;;;;;17.56;36.51;100954.25;123399;1102;104373;-77
2023/06/07 02:12:23;;;;;;;8.73;3.70;;;;;;;17.54;36.62;100953.31;123563;1102;104309;-78
2023/06/07 02:14:57;;;;;;;11.35;3.60;;;;;;;17.51;36.88;100952.39;123613;1102;104367;-78
2023/06/07 02:17:32;;;;;;;6.97;3.70;;;;;;;17.44;36.95;100951.42;123504;1102;104233;-78
2023/06/07 02:20:05;;;;;;;10.47;4.00;;;;;;;17.41;37.04;100956.68;123726;1101;104309;-77
2023/06/07 02:22:37;;;;;;;8.23;3.77;;;;;;;17.39;37.16;100961.96;123462;1101;104249;-78
2023/06/07 02:25:10;;;;;;;9.77;4.07;;;;;;;17.38;37.21;100962.82;123439;1102;104325;-77
2023/06/07 02:27:41;;;;;;;10.33;4.03;;;;;;;17.38;37.85;100957.52;123594;1102;104268;-78
2023/06/07 02:30:13;;;;;;;9.53;3.83;;;;;;;17.38;37.69;100962.82;123589;1102;104318;-78
2023/06/07 02:32:48;;;;;;;12.50;3.90;;;;;;;17.33;38.08;100963.64;123567;1102;104363;-78
2023/06/07 02:35:20;;;;;;;8.33;3.83;;;;;;;17.31;38.57;100968.00;123405;1102;104251;-77
2023/06/07 02:40:43;;;;;;;10.87;4.20;;;;;;;17.25;38.63;100967.05;123527;1101;104281;-77
2023/06/07 02:43:15;;;;;;;10.03;3.87;;;;;;;17.22;38.54;100971.42;123470;1102;104281;-77
2023/06/07 02:45:47;;;;;;;11.73;3.93;;;;;;;17.19;38.59;100972.25;123341;1102;110417;-78
2023/06/07 02:48:18;;;;;;;10.70;3.97;;;;;;;17.15;39.31;100967.76;123441;1102;104303;-78
2023/06/07 02:50:49;;;;;;;8.83;3.80;;;;;;;17.13;38.93;100966.85;123632;1102;104347;-79
2023/06/07 02:53:21;;;;;;;14.10;4.03;;;;;;;17.08;38.89;100963.24;123811;1102;104322;-80
2023/06/07 02:55:52;;;;;;;14.33;4.40;;;;;;;17.08;39.18;100963.24;123930;1101;104255;-80
2023/06/07 02:58:24;;;;;;;11.33;4.20;;;;;;;17.12;39.71;100958.87;123958;1102;104287;-79
2023/06/07 03:00:56;;;;;;;15.53;4.80;;;;;;;17.18;39.38;100965.16;123794;1102;102131;-77
2023/06/07 03:03:27;;;;;;;19.60;5.07;;;;;;;17.20;39.78;100959.88;123725;1102;104284;-79
2023/06/07 03:06:07;;;;;;;19.63;4.60;;;;;;;17.23;39.53;100955.54;123707;1102;104281;-77
2023/06/07 03:08:39;;;;;;;14.63;4.90;;;;;;;17.31;39.72;100960.05;123462;1101;104380;-78
2023/06/07 03:11:10;;;;;;;24.00;6.23;;;;;;;17.37;39.92;100958.41;123409;1102;104321;-78
2023/06/07 03:13:45;;;;;;;18.60;5.03;;;;;;;17.45;40.27;100963.79;123504;1102;104278;-78
2023/06/07 03:16:18;;;;;;;15.07;4.93;;;;;;;17.47;40.20;100959.42;123487;1102;119083;-78
2023/06/07 03:18:59;;;;;;;15.80;5.03;;;;;;;17.51;40.56;100963.88;123459;1102;104399;-79
2023/06/07 03:21:30;;;;;;;15.90;5.00;;;;;;;17.55;40.55;100967.50;123492;1102;104242;-78
2023/06/07 03:24:06;;;;;;;14.43;4.93;;;;;;;17.56;40.53;100961.30;123493;1101;104208;-77
2023/06/07 03:26:37;;;;;;;14.17;4.67;;;;;;;17.58;40.49;100960.46;123467;1101;104348;-77
2023/06/07 03:29:09;;;;;;;17.10;5.00;;;;;;;17.63;40.35;100965.84;123377;1102;104341;-77
2023/06/07 03:31:46;;;;;;;18.53;5.50;;;;;;;17.68;40.28;100964.12;123423;1102;104262;-77
2023/06/07 03:34:20;;;;;;;13.40;4.90;;;;;;;17.74;40.62;100965.98;123336;1102;104290;-78
2023/06/07 03:36:52;;;;;;;15.70;4.50;;;;;;;17.78;40.66;100963.39;123343;1102;104214;-78
2023/06/07 03:39:23;;;;;;;16.57;4.50;;;;;;;17.84;40.49;100965.25;123787;1102;104210;-76
2023/06/07 03:41:55;;;;;;;13.13;4.47;;;;;;;17.90;40.33;100962.72;123380;1102;104317;-77
2023/06/07 03:44:28;;;;;;;12.07;4.72;;;;;;;17.91;40.65;100967.12;123373;1102;104625;-78
2023/06/07 03:47:00;;;;;;;14.83;4.70;;;;;;;17.94;40.87;100964.52;123547;1101;104319;-78
2023/06/07 03:49:32;;;;;;;18.97;5.07;;;;;;;17.99;40.41;100963.70;123460;1102;104309;-78
2023/06/07 03:52:03;;;;;;;25.63;5.13;;;;;;;18.04;40.55;100972.59;123508;1102;104277;-78
2023/06/07 03:54:35;;;;;;;22.15;5.40;;;;;;;18.07;40.89;100962.02;123513;1102;104287;-80
2023/06/07 03:57:08;;;;;;;10.50;4.40;;;;;;;18.13;40.75;100962.09;123886;1102;104287;-81
2023/06/07 03:59:42;;;;;;;14.07;4.43;;;;;;;18.12;41.08;100963.87;124386;1102;104210;-80
2023/06/07 04:02:14;;;;;;;16.70;4.63;;;;;;;18.13;40.89;100968.28;124320;1102;104316;-81
2023/06/07 04:04:47;;;;;;;13.93;4.93;;;;;;;18.18;41.13;100962.15;124168;1102;104253;-80
2023/06/07 04:07:18;;;;;;;16.33;4.70;;;;;;;18.23;41.57;100961.34;124364;1102;104175;-80
2023/06/07 04:09:50;;;;;;;23.20;5.10;;;;;;;18.28;41.40;100961.39;124109;1102;104466;-80
2023/06/07 04:12:21;;;;;;;18.17;5.10;;;;;;;18.33;41.60;100965.87;124400;1102;104242;-79
2023/06/07 04:14:55;;;;;;;14.18;4.47;;;;;;;18.41;40.90;100959.76;124424;1102;104243;-82
2023/06/07 04:17:26;;;;;;;15.15;4.75;;;;;;;18.43;40.97;100953.59;124505;1102;104302;-82
2023/06/07 04:19:58;;;;;;;12.67;4.33;;;;;;;18.49;40.80;100969.57;124498;1102;104192;-81
2023/06/07 04:22:30;;;;;;;13.87;4.40;;;;;;;18.57;40.94;100955.48;124299;1102;104178;-81
2023/06/07 04:25:02;;;;;;;12.75;3.90;;;;;;;18.66;40.87;100967.09;123652;1102;104354;-80
2023/06/07 04:27:34;;;;;;;14.13;3.90;;;;;;;18.73;40.70;100961.84;123871;1102;104348;-80
2023/06/07 04:30:08;;;;;;;10.97;3.90;;;;;;;18.80;40.57;100963.69;124248;1102;104278;-80
2023/06/07 04:32:41;;;;;;;10.83;3.70;;;;;;;18.85;40.56;100967.30;124108;1102;104625;-81
2023/06/07 04:35:16;;;;;;;10.82;4.00;;;;;;;18.89;40.48;100969.13;123840;1102;104399;-80
2023/06/07 04:37:51;;;;;;;10.53;3.87;;;;;;;18.91;40.17;100964.70;124093;1102;104303;-80
2023/06/07 04:40:23;;;;;;;18.37;3.70;;;;;;;18.98;39.99;100971.88;123866;1102;104246;-80
2023/06/07 04:43:05;;;;;;;10.20;3.63;;;;;;;19.02;40.06;100971.00;124201;1102;104286;-81
2023/06/07 04:45:40;;;;;;;13.80;3.90;;;;;;;19.08;39.86;100974.61;124700;1102;104248;-79
2023/06/07 04:48:12;;;;;;;10.70;3.90;;;;;;;19.15;40.42;100971.10;124397;1102;104175;-81
2023/06/07 04:50:45;;;;;;;11.07;4.40;;;;;;;19.22;39.63;100975.59;124200;1102;104246;-78
2023/06/07 04:53:19;;;;;;;14.45;4.20;;;;;;;19.32;40.18;100971.23;124939;1102;104271;-80
2023/06/07 04:55:52;;;;;;;9.90;3.87;;;;;;;19.34;39.97;100957.07;125029;1102;104255;-80
2023/06/07 04:58:24;;;;;;;12.40;4.13;;;;;;;19.49;39.69;100966.91;124872;1102;104338;-79
2023/06/07 05:00:56;;;;;;;17.77;4.60;;;;;;;19.56;40.17;100968.73;124881;1101;104229;-77
2023/06/07 05:03:28;;;;;;;13.93;4.17;;;;;;;19.63;40.11;100964.33;124911;1102;104351;-81
2023/06/07 05:06:02;;;;;;;9.93;3.83;;;;;;;19.68;39.29;100969.69;125138;1101;104284;-80
2023/06/07 05:08:39;;;;;;;9.73;3.83;;;;;;;19.71;39.16;100975.03;125180;1102;104290;-77
2023/06/07 05:11:11;;;;;;;7.40;3.20;;;;;;;19.77;39.34;100976.88;124934;1102;105697;-81
2023/06/07 05:13:43;;;;;;;10.97;3.80;;;;;;;19.82;39.60;100970.70;124738;1102;104265;-85
2023/06/07 05:16:16;;;;;;;11.83;4.50;;;;;;;19.91;39.40;100980.49;125499;1102;104232;-79
2023/06/07 05:18:48;;;;;;;;;;;;;;;20.03;39.51;100975.23;124438;1102;104214;-80
2023/06/07 05:21:20;;;;;;;12.53;4.43;;;;;;;20.10;39.18;100985.03;124463;1102;104291;-82
2023/06/07 05:23:52;;;;;;;14.93;4.10;;;;;;;20.20;39.56;100980.63;124370;1102;104263;-78
2023/06/07 05:26:23;;;;;;;11.10;3.93;;;;;;;20.33;39.06;100983.34;124168;1102;104448;-80
2023/06/07 05:29:08;;;;;;;10.50;3.80;;;;;;;20.48;38.61;100983.38;124458;1102;104291;-79
2023/06/07 05:31:40;;;;;;;12.43;3.80;;;;;;;20.58;39.15;100986.95;124663;1102;103388;-82
2023/06/07 05:34:16;;;;;;;15.40;4.20;;;;;;;20.70;38.74;100981.68;125284;1092;103299;-78
2023/06/07 05:36:49;;;;;;;13.67;4.33;;;;;;;20.84;39.49;100987.03;125410;1093;104331;-77
2023/06/07 05:39:23;;;;;;;12.73;5.10;;;;;;;20.97;39.19;100987.92;124685;1102;102044;-77
2023/06/07 05:41:57;;;;;;;15.97;3.77;;;;;;;21.08;38.60;100985.27;124352;1102;104249;-79
2023/06/07 05:44:40;;;;;;;;;;;;;;;;;;;;;
2023/06/07 05:47:11;;;;;;;10.17;3.80;;;;;;;21.23;38.88;100985.27;124426;1102;104264;-77
2023/06/07 05:49:53;;;;;;;10.93;4.30;;;;;;;21.38;38.70;100981.70;124796;1102;118178;-76
2023/06/07 05:52:27;;;;;;;9.40;3.80;;;;;;;21.51;39.02;100980.81;126032;1102;102158;-79
2023/06/07 05:54:58;;;;;;;;;;;;;;;21.68;38.85;100987.91;126145;1101;102019;-78
2023/06/07 05:57:30;;;;;;;15.63;4.57;;;;;;;21.78;37.91;100983.43;126324;1100;102463;-78
2023/06/07 06:00:01;;;;;;;13.23;3.87;;;;;;;21.89;38.31;100978.94;126058;1101;101810;-81
2023/06/07 06:02:52;;;;;;;13.73;4.73;;;;;;;22.01;38.82;100980.69;126077;1101;102452;-79
2023/06/07 06:05:27;;;;;;;11.77;3.87;;;;;;;22.09;38.23;100978.86;126231;1101;102915;-79
2023/06/07 06:08:06;;;;;;;13.40;3.97;;;;;;;22.18;38.14;100977.95;125551;1100;102752;-79
2023/06/07 06:10:47;;;;;;;10.80;4.00;;;;;;;22.25;37.88;100975.23;124359;1102;104264;-81
2023/06/07 06:13:24;;;;;;;7.03;3.20;;;;;;;22.30;37.73;100976.98;124512;1102;102552;-79
2023/06/07 06:16:10;;;;;;;9.23;3.70;;;;;;;22.34;37.31;100990.36;124464;1102;104037;-78
2023/06/07 06:18:42;;;;;;;8.60;3.57;;;;;;;22.38;37.67;100980.55;124286;1102;104383;-79
2023/06/07 06:21:14;;;;;;;13.00;3.75;;;;;;;22.41;37.30;100992.11;124374;1102;104166;-78
2023/06/07 06:23:47;;;;;;;9.73;3.47;;;;;;;22.46;37.48;100986.73;124475;1102;104306;-81
2023/06/07 06:26:21;;;;;;;10.50;3.40;;;;;;;22.51;36.55;100976.89;124456;1102;104245;-78
2023/06/07 06:28:54;;;;;;;10.77;3.53;;;;;;;22.54;36.59;100967.98;124413;1102;104160;-80
2023/06/07 06:31:32;;;;;;;10.30;3.33;;;;;;;22.57;36.98;100976.86;124765;1102;105279;-81
2023/06/07 06:34:07;;;;;;;8.03;3.13;;;;;;;22.64;36.38;100968.80;124605;1102;104194;-80
2023/06/07 06:36:43;;;;;;;15.57;3.87;;;;;;;22.73;36.78;100979.44;124565;1102;104251;-78
2023/06/07 06:39:20;;;;;;;9.33;3.50;;;;;;;22.82;36.49;100974.02;124691;1102;104239;-79
2023/06/07 06:41:57;;;;;;;7.90;2.97;;;;;;;22.92;36.35;100975.73;124476;1102;104188;-78
2023/06/07 06:44:40;;;;;;;7.13;2.90;;;;;;;23.08;35.63;100980.97;125277;1102;104338;-81
2023/06/07 06:47:40;;;;;;;;;;;;;;;;;;;;;
2023/06/07 06:50:44;;;;;;;8.03;3.00;;;;;;;23.34;35.68;100975.39;125007;1102;104223;-79
2023/06/07 06:53:35;;;;;;;6.13;2.87;;;;;;;23.50;35.46;100971.67;124580;1102;101942;-79
2023/06/07 06:56:16;;;;;;;7.63;2.80;;;;;;;23.67;35.46;100974.17;124594;1102;104516;-77
2023/06/07 06:58:53;;;;;;;7.73;3.43;;;;;;;23.85;35.09;100966.86;124777;1102;104219;-76
2023/06/07 07:01:43;;;;;;;11.85;3.00;;;;;;;24.00;34.51;100972.03;124582;1102;104354;-77
2023/06/07 07:04:19;;;;;;;7.17;3.25;;;;;;;24.28;34.68;100963.64;124546;1102;104217;-78
2023/06/07 07:06:53;;;;;;;7.17;3.10;;;;;;;24.49;34.30;100974.97;124562;1102;103098;-76
2023/06/07 07:09:30;;;;;;;8.07;2.93;;;;;;;24.72;33.82;100967.48;125060;1102;102317;-75
2023/06/07 07:12:06;;;;;;;6.47;3.00;;;;;;;25.03;33.79;100971.49;124440;1102;104906;-79
2023/06/07 07:14:40;;;;;;;4.92;2.50;;;;;;;25.24;33.45;100965.75;124827;1101;103238;-78
2023/06/07 07:17:16;;;;;;;6.73;2.97;;;;;;;25.41;32.67;100961.89;124723;1102;104242;-78
2023/06/07 07:19:53;;;;;;;8.93;3.20;;;;;;;25.61;32.26;100965.08;124420;1102;104272;-78
2023/06/07 07:22:28;;;;;;;7.83;3.30;;;;;;;25.73;31.77;100963.09;124582;1102;103169;-76
2023/06/07 07:25:05;;;;;;;8.17;2.97;;;;;;;25.89;32.15;100969.04;124486;1102;104258;-77
2023/06/07 07:27:38;;;;;;;8.50;2.83;;;;;;;26.01;32.20;100963.45;124594;1102;104812;-76
2023/06/07 07:30:15;;;;;;;5.33;2.77;;;;;;;26.05;31.54;100965.13;124577;1102;104233;-78
2023/06/07 07:32:48;;;;;;;10.63;3.00;;;;;;;26.08;31.26;100959.69;124487;1102;104738;-79
2023/06/07 07:35:24;;;;;;;9.43;3.17;;;;;;;26.11;30.86;100956.94;124485;1102;104268;-74
2023/06/07 07:38:01;;;;;;;8.63;2.90;;;;;;;26.21;31.11;100959.42;124542;1100;103653;-77
2023/06/07 07:40:33;;;;;;;11.43;3.10;;;;;;;26.27;30.56;100953.91;124463;1102;104197;-75
2023/06/07 07:43:09;;;;;;;8.00;2.90;;;;;;;26.39;31.09;100953.64;124391;1102;104275;-77
2023/06/07 07:45:44;;;;;;;4.50;2.90;;;;;;;26.43;30.08;100958.04;124420;1100;104264;-76
2023/06/07 07:48:33;;;;;;;8.13;2.80;;;;;;;26.49;30.16;100963.28;124582;1102;104210;-74
2023/06/07 07:51:06;;;;;;;9.30;3.00;;;;;;;26.59;30.27;100957.69;124545;1102;104336;-78
2023/06/07 07:53:43;;;;;;;5.13;2.73;;;;;;;26.74;30.30;100957.36;124431;1102;102286;-75
2023/06/07 07:56:18;;;;;;;5.30;3.10;;;;;;;26.76;29.73;100955.50;124552;1102;104248;-74
2023/06/07 07:58:50;;;;;;;7.25;2.65;;;;;;;26.75;29.35;100955.53;124490;1102;104198;-76
2023/06/07 08:01:25;;;;;;;3.67;2.77;;;;;;;26.80;28.60;100961.69;124532;1102;103687;-76
2023/06/07 08:04:03;;;;;;;7.20;2.87;;;;;;;26.97;29.01;100961.27;124664;1102;104184;-80
2023/06/07 08:06:38;;;;;;;4.77;2.30;;;;;;;27.00;28.94;100959.37;124507;1102;104376;-77
2023/06/07 08:09:14;;;;;;;6.37;3.10;;;;;;;27.16;28.94;100959.89;124168;1102;104281;-76
2023/06/07 08:11:51;;;;;;;5.00;3.00;;;;;;;27.30;28.40;100953.23;124387;1102;102391;-77
2023/06/07 08:14:26;;;;;;;5.05;3.17;;;;;;;27.46;28.31;100957.33;126443;1100;103392;-79
2023/06/07 08:17:03;;;;;;;7.27;3.40;;;;;;;27.64;28.23;100955.05;124744;1102;104389;-81
2023/06/07 08:19:42;;;;;;;6.37;2.90;;;;;;;27.76;27.77;100957.40;124482;1102;104254;-81
2023/06/07 08:22:19;;;;;;;4.73;2.70;;;;;;;27.92;27.63;100958.70;125441;1102;104233;-80
2023/06/07 08:24:59;;;;;;;7.37;2.90;;;;;;;28.04;27.83;100949.41;124535;1101;104255;-79
2023/06/07 08:27:33;;;;;;;4.97;2.67;;;;;;;28.07;27.61;100946.63;124496;1102;104193;-78
2023/06/07 08:30:09;;;;;;;7.83;2.90;;;;;;;28.08;27.41;100947.50;124250;1102;102990;-76
2023/06/07 08:32:42;;;;;;;7.00;2.50;;;;;;;28.09;26.46;100949.27;126286;1100;104217;-79
2023/06/07 08:35:16;;;;;;;6.80;2.65;;;;;;;28.11;26.41;100942.01;124299;1101;104175;-81
2023/06/07 08:37:51;;;;;;;8.87;3.00;;;;;;;28.11;26.03;100953.70;124269;1102;102541;-79
2023/06/07 08:40:25;;;;;;;4.43;3.10;;;;;;;28.17;26.36;100949.92;124464;1102;102890;-80
2023/06/07 08:42:58;;;;;;;9.20;3.00;;;;;;;28.26;25.59;100957.73;124221;1102;102874;-76
2023/06/07 08:45:31;;;;;;;7.00;3.00;;;;;;;28.31;25.86;100954.89;124438;1102;104191;-77
2023/06/07 08:48:07;;;;;;;7.42;2.87;;;;;;;28.25;25.79;100952.38;124390;1102;102453;-78
2023/06/07 08:50:39;;;;;;;5.07;2.90;;;;;;;28.23;26.08;100940.77;124334;1102;104204;-81
2023/06/07 08:53:16;;;;;;;5.93;2.57;;;;;;;28.23;25.81;100947.03;124509;1102;104173;-74
2023/06/07 08:55:47;;;;;;;5.60;2.90;;;;;;;28.25;25.97;100944.28;124320;1102;103423;-81
2023/06/07 08:58:24;;;;;;;7.23;2.70;;;;;;;28.24;26.15;100943.41;124604;1102;103738;-76
2023/06/07 09:01:01;;;;;;;4.30;2.60;;;;;;;28.13;25.64;100942.87;124585;1102;104275;-79
2023/06/07 09:03:38;;;;;;;5.63;3.10;;;;;;;28.13;25.52;100932.95;124714;1102;104279;-78
2023/06/07 09:06:12;;;;;;;5.57;2.90;;;;;;;28.23;25.32;100936.23;124795;1100;104370;-81
2023/06/07 09:08:45;;;;;;;8.43;3.20;;;;;;;28.38;25.76;100939.42;124616;1102;103145;-78
2023/06/07 09:11:18;;;;;;;7.10;2.95;;;;;;;28.55;25.36;100937.05;124531;1102;104178;-77
2023/06/07 09:13:55;;;;;;;6.67;2.70;;;;;;;28.59;24.77;100936.03;124594;1101;111844;-76
2023/06/07 09:16:32;;;;;;;7.10;3.03;;;;;;;28.73;24.96;100938.28;124397;1102;104277;-77
2023/06/07 09:19:04;;;;;;;9.60;3.03;;;;;;;28.83;25.04;100941.59;124720;1102;104210;-76
2023/06/07 09:21:35;;;;;;;5.17;2.90;;;;;;;28.92;24.87;100935.88;124507;1102;104175;-78
2023/06/07 09:24:08;;;;;;;7.67;3.07;;;;;;;28.97;24.54;100936.59;124337;1101;104351;-77
2023/06/07 09:26:41;;;;;;;6.77;3.13;;;;;;;28.88;24.25;100928.80;124482;1102;102501;-81
2023/06/07 09:29:20;;;;;;;8.70;3.60;;;;;;;28.78;24.19;100936.34;124629;1103;104245;-77
2023/06/07 09:32:26;;;;;;;;;;;;;;;;;;;;;
2023/06/07 09:35:33;;;;;;;10.17;3.10;;;;;;;28.73;24.28;100932.89;124631;1101;107363;-80
2023/06/07 09:38:33;;;;;;;3.97;2.73;;;;;;;28.85;24.26;100935.18;124902;1102;102227;-81
2023/06/07 09:41:50;;;;;;;9.57;2.80;;;;;;;29.02;24.23;100931.03;125067;1102;104249;-81
2023/06/07 09:44:28;;;;;;;6.57;3.10;;;;;;;29.10;24.06;100933.47;124927;1102;104221;-79
2023/06/07 09:47:04;;;;;;;10.03;3.40;;;;;;;29.27;24.24;100938.33;124749;1102;104226;-79
2023/06/07 09:49:55;;;;;;;5.17;3.00;;;;;;;29.38;23.54;100934.28;124602;1102;102730;-79
2023/06/07 09:52:35;;;;;;;6.83;3.20;;;;;;;29.39;23.86;100929.78;124897;1102;102404;-81
2023/06/07 09:55:31;;;;;;;5.57;3.03;;;;;;;29.36;23.46;100924.48;125006;1102;102748;-80
2023/06/07 09:58:17;;;;;;;6.57;3.13;;;;;;;29.46;23.64;100930.44;124479;1102;103046;-78
2023/06/07 10:00:55;;;;;;;4.97;2.87;;;;;;;29.45;23.48;100913.34;124555;1102;104242;-81
2023/06/07 10:03:28;;;;;;;12.10;3.60;;;;;;;29.46;23.51;100925.03;124724;1102;104332;-79
2023/06/07 10:06:05;;;;;;;9.90;3.27;;;;;;;29.59;23.34;100926.32;124971;1102;104149;-81
2023/06/07 10:08:45;;;;;;;6.80;3.05;;;;;;;29.71;23.54;100928.57;124873;1102;102383;-81
2023/06/07 10:11:27;;;;;;;5.67;3.03;;;;;;;29.75;23.65;100927.53;125177;1102;102231;-81
2023/06/07 10:14:20;;;;;;;5.20;3.12;;;;;;;29.87;23.44;100915.41;125048;1102;104108;-79
2023/06/07 10:16:56;;;;;;;7.40;3.20;;;;;;;29.87;23.19;100903.69;125090;1102;102419;-82
2023/06/07 10:19:52;;;;;;;6.87;2.97;;;;;;;29.83;23.02;100919.16;125148;1102;102537;-78
2023/06/07 10:22:36;;;;;;;6.80;3.10;;;;;;;29.91;23.13;100906.22;125012;1102;102757;-81
2023/06/07 10:25:15;;;;;;;5.47;3.03;;;;;;;30.04;22.88;100903.91;124702;1102;102704;-81
2023/06/07 10:28:02;;;;;;;5.57;2.80;;;;;;;30.07;23.22;100895.67;124547;1101;104328;-80
2023/06/07 10:30:38;;;;;;;4.03;2.70;;;;;;;30.08;23.16;100894.73;124516;1102;104166;-77
2023/06/07 10:33:10;;;;;;;7.87;3.00;;;;;;;30.06;22.89;100890.31;124327;1102;104243;-78
2023/06/07 10:35:42;;;;;;;7.15;3.15;;;;;;;29.92;22.72;100885.48;124442;1102;104239;-79
2023/06/07 10:38:14;;;;;;;7.40;3.23;;;;;;;29.76;22.69;100885.13;124836;1102;104200;-81
2023/06/07 10:40:47;;;;;;;5.10;3.00;;;;;;;29.71;23.04;100884.44;124546;1103;104233;-78
2023/06/07 10:43:19;;;;;;;7.20;3.20;;;;;;;29.52;22.73;100893.23;124315;1102;104178;-74
2023/06/07 10:46:12;;;;;;;4.15;2.83;;;;;;;29.53;23.01;100892.31;124412;1102;103334;-76
2023/06/07 10:48:45;;;;;;;5.97;2.97;;;;;;;29.57;22.99;100879.55;124299;1102;104438;-75
2023/06/07 10:51:46;;;;;;;;;;;;;;;;;;;;;
2023/06/07 10:54:32;;;;;;;7.33;3.20;;;;;;;29.77;23.06;100873.38;124820;1102;104243;-81
2023/06/07 10:59:54;;;;;;;6.57;3.27;;;;;;;29.66;22.92;100872.92;124254;1102;104300;-74
2023/06/07 11:02:28;;;;;;;6.90;3.20;;;;;;;29.60;22.92;100890.25;124503;1102;104261;-79
2023/06/07 11:05:03;;;;;;;6.50;3.07;;;;;;;29.64;22.91;100875.69;124490;1102;104187;-76
2023/06/07 11:07:40;;;;;;;4.83;3.27;;;;;;;29.73;22.93;100872.62;124478;1101;104689;-73
2023/06/07 11:10:35;;;;;;;6.17;3.40;;;;;;;29.79;22.85;100854.39;124123;1100;104632;-74
2023/06/07 11:13:11;;;;;;;4.05;3.10;;;;;;;29.76;22.95;100858.99;124113;1102;104204;-81
2023/06/07 11:15:45;;;;;;;;;;;;;;;29.63;22.86;100864.92;124366;1102;104281;-79
2023/06/07 11:18:20;;;;;;;10.37;3.57;;;;;;;29.57;23.04;100868.73;124266;1102;104348;-79
2023/06/07 11:20:57;;;;;;;8.40;3.30;;;;;;;29.53;22.91;100867.07;124413;1102;104188;-77
2023/06/07 11:23:34;;;;;;;5.37;3.00;;;;;;;29.50;23.05;100873.50;124198;1102;104284;-81
2023/06/07 11:26:12;;;;;;;4.53;2.97;;;;;;;29.46;23.02;100854.75;124505;1102;102972;-79
2023/06/07 11:28:45;;;;;;;5.90;3.33;;;;;;;29.49;23.07;100860.03;124436;1102;104241;-78
2023/06/07 11:31:16;;;;;;;;;;;;;;;29.53;22.93;100858.96;125964;1102;102553;-80
2023/06/07 11:33:51;;;;;;;7.77;3.47;;;;;;;29.63;23.34;100849.58;124297;1102;104410;-80
2023/06/07 11:36:23;;;;;;;6.27;3.13;;;;;;;29.60;22.83;100830.77;124171;1102;104176;-74
2023/06/07 11:38:57;;;;;;;5.87;3.13;;;;;;;29.59;22.98;100847.92;124130;1102;104258;-77
2023/06/07 11:41:28;;;;;;;9.83;3.50;;;;;;;29.54;22.63;100848.09;124227;1102;104026;-75
2023/06/07 11:44:03;;;;;;;10.13;3.70;;;;;;;29.45;22.46;100831.34;124445;1102;104227;-79
2023/06/07 11:46:48;;;;;;;5.63;3.23;;;;;;;29.49;22.11;100843.81;126431;1101;102656;-76
2023/06/07 11:49:28;;;;;;;5.60;3.00;;;;;;;29.37;22.26;100837.94;125906;1099;102551;-80
2023/06/07 11:54:45;;;;;;;8.43;3.37;;;;;;;29.08;21.80;100838.06;124917;1102;104675;-76
2023/06/07 11:57:22;;;;;;;9.27;3.73;;;;;;;29.01;21.96;100826.61;124626;1102;104421;-80
2023/06/07 11:59:57;;;;;;;5.47;3.20;;;;;;;28.95;22.17;100829.53;124630;1102;104222;-82